Buchans, Canada
Current Conditions -  °F | °C
As of 7:00 PM on Tuesday 21 Oct 2014 (Local Time) from CYDF Reporting Station
Rain Showers Rain Showers  
Wind Chill: 41°   Ceiling: 3600
Heat Index: 45°   Visibility: 15mi
Dew Point: 39°   Wind: 6mph
Humidity: 81%   Direction: 230°SW
Pressure: 30.13"   Gusts: NA
Location:  48.82°N, 56.87°W
Report Text: CYDF 212100Z 23005KT 15SM VCSH BKN036 07/04 A3013 RMK SC7 SLP205
Loading
Personal Weather Stations






























Interactive Weather Map
Tropical Storm Tracking
New forecast layout! Learn more

10-Day Weather Forecast

Advertisements
Track Severe Weather on mobile